^^
Grace C. Lehan Memorial Weather Station Historical Data
Daily Summary for September 23, 2021 Units:  English    Metric   Both
Daily Weekly Monthly Yearly
  High: Low: Average:
Temperature: 80.4 °F 70.5 °F 74.7 °F
Dew Point: 73.2 °F 68.7 °F 70.6 °F
Humidity: 95% 75% 88%
Wind Speed: 4.1mph 0mph 0.7mph
Wind Gust: 16mph - -
Wind- - SE
Pressure: 30.01 in 29.93 in -
Precipitation: 0.00 in    
 
 
Tabular Data for September 23, 2021
Time Temperature Dew Point Pressure Wind Wind Speed Wind Gust Humidity Rainfall Rate (Hourly) solar
00:09 72 °F 69.9 °F 30.01 in Calm     93% 0.04 in 0 W/m2
00:14 72 °F 69.9 °F 30.01 in Calm     93% 0.04 in 0 W/m2
00:19 72 °F 69.9 °F 30.01 in Calm     93% 0.04 in 0 W/m2
00:24 71.9 °F 69.8 °F 30.01 in Calm     93% 0.04 in 0 W/m2
00:29 71.9 °F 69.8 °F 30.01 in Calm     93% 0.04 in 0 W/m2
00:34 71.8 °F 69.7 °F 30.01 in Calm     93% 0.04 in 0 W/m2
00:39 71.8 °F 69.7 °F 30.01 in SSE 0.1 mph 3 mph 93% 0.04 in 0 W/m2
00:44 71.7 °F 69.6 °F 30.01 in Calm   3 mph 93% 0.04 in 0 W/m2
00:49 71.7 °F 69.8 °F 30.01 in Calm   3 mph 93.6% 0.04 in 0 W/m2
00:54 71.7 °F 69.9 °F 30.01 in Calm   3 mph 94% 0.04 in 0 W/m2
00:59 71.6 °F 69.8 °F 30.01 in Calm   3 mph 94% 0.04 in 0 W/m2
01:04 71.6 °F 69.8 °F 30.01 in Calm   3 mph 94% 0.04 in 0 W/m2
01:09 71.5 °F 69.7 °F 30.01 in Calm     94% 0.00 in 0 W/m2
01:14 71.5 °F 69.7 °F 30.01 in Calm     94% 0.00 in 0 W/m2
01:19 71.4 °F 69.6 °F 30.01 in Calm     94% 0.00 in 0 W/m2
01:24 71.4 °F 69.4 °F 30.01 in Calm     93.4% 0.00 in 0 W/m2
01:29 71.3 °F 69.3 °F 30.01 in Calm     93.4% 0.00 in 0 W/m2
01:34 71.3 °F 69.5 °F 30.01 in Calm     94% 0.00 in 0 W/m2
01:39 71.2 °F 69.4 °F 30.01 in Calm     94% 0.00 in 0 W/m2
01:44 71.2 °F 69.4 °F 30.01 in Calm     94% 0.00 in 0 W/m2
01:49 71.2 °F 69.4 °F 30.01 in Calm     94% 0.00 in 0 W/m2
01:54 71.1 °F 69.3 °F 30.01 in Calm   1 mph 94% 0.00 in 0 W/m2
01:59 71.1 °F 69.3 °F 30.01 in Calm   1 mph 94% 0.00 in 0 W/m2
02:04 71.1 °F 69.3 °F 30.00 in Calm   1 mph 94% 0.00 in 0 W/m2
02:09 71.1 °F 69.3 °F 30.00 in Calm     94% 0.00 in 0 W/m2
02:14 71 °F 69.2 °F 30.00 in Calm     94% 0.00 in 0 W/m2
02:19 71 °F 69.2 °F 30.00 in Calm     94% 0.00 in 0 W/m2
02:24 71 °F 69.2 °F 30.00 in Calm     94% 0.00 in 0 W/m2
02:29 71 °F 69.2 °F 30.00 in Calm     94% 0.00 in 0 W/m2
02:34 71 °F 69.2 °F 30.00 in Calm     94% 0.00 in 0 W/m2
02:39 71 °F 69.2 °F 30.00 in Calm     94% 0.00 in 0 W/m2
02:44 70.9 °F 69.1 °F 30.00 in Calm     94% 0.00 in 0 W/m2
02:49 70.8 °F 69 °F 30.00 in Calm     94% 0.00 in 0 W/m2
02:54 70.8 °F 69 °F 30.00 in Calm     94% 0.00 in 0 W/m2
02:59 70.8 °F 69 °F 30.00 in Calm     94% 0.00 in 0 W/m2
03:04 70.7 °F 68.9 °F 30.00 in Calm     94% 0.00 in 0 W/m2
03:09 70.7 °F 68.9 °F 30.00 in Calm     94% 0.00 in 0 W/m2
03:14 70.6 °F 68.8 °F 30.00 in Calm     94% 0.00 in 0 W/m2
03:19 70.6 °F 68.8 °F 29.99 in Calm     94% 0.00 in 0 W/m2
03:24 70.7 °F 69 °F 29.99 in Calm     94.5% 0.00 in 0 W/m2
03:29 70.7 °F 69.2 °F 29.99 in Calm     95% 0.00 in 0 W/m2
03:34 70.8 °F 69.3 °F 29.99 in Calm     95% 0.00 in 0 W/m2
03:39 70.8 °F 69.3 °F 29.99 in Calm     95% 0.00 in 0 W/m2
03:44 70.8 °F 69.3 °F 29.98 in Calm     95% 0.00 in 0 W/m2
03:49 70.8 °F 69.3 °F 29.98 in Calm     95% 0.00 in 0 W/m2
03:54 70.8 °F 69.3 °F 29.98 in Calm   1 mph 95% 0.00 in 0 W/m2
03:59 70.9 °F 69.4 °F 29.98 in Calm   1 mph 95% 0.00 in 0 W/m2
04:00 70.9 °F 69.4 °F 29.98 in Calm   1 mph 95% 0.00 in 0 W/m2
04:09 70.9 °F 69.4 °F 29.98 in Calm     95% 0.00 in 0 W/m2
04:14 70.9 °F 69.4 °F 29.98 in Calm   1 mph 95% 0.00 in 0 W/m2
04:19 71 °F 69.5 °F 29.98 in Calm   1 mph 95% 0.00 in 0 W/m2
04:24 71 °F 69.5 °F 29.98 in Calm   1 mph 95% 0.00 in 0 W/m2
04:29 71 °F 69.5 °F 29.98 in Calm   1 mph 95% 0.00 in 0 W/m2
04:34 71 °F 69.5 °F 29.98 in Calm   1 mph 95% 0.00 in 0 W/m2
04:39 71 °F 69.5 °F 29.98 in Calm     95% 0.00 in 0 W/m2
04:44 70.9 °F 69.4 °F 29.98 in Calm     95% 0.00 in 0 W/m2
04:49 70.9 °F 69.4 °F 29.98 in Calm     95% 0.00 in 0 W/m2
04:54 70.9 °F 69.4 °F 29.98 in Calm     95% 0.00 in 0 W/m2
04:59 70.9 °F 69.4 °F 29.97 in Calm     95% 0.00 in 0 W/m2
05:04 70.8 °F 69.3 °F 29.98 in SE 0.1 mph 3 mph 95% 0.00 in 0 W/m2
05:09 70.8 °F 69.3 °F 29.97 in Calm   3 mph 95% 0.00 in 0 W/m2
05:14 70.8 °F 69.2 °F 29.97 in Calm   3 mph 94.9% 0.00 in 0 W/m2
05:19 70.7 °F 68.9 °F 29.97 in Calm   3 mph 94% 0.00 in 0 W/m2
05:24 70.7 °F 68.9 °F 29.97 in Calm   3 mph 94% 0.00 in 0 W/m2
05:29 70.7 °F 68.9 °F 29.97 in Calm   3 mph 94% 0.00 in 0 W/m2
05:34 70.7 °F 68.9 °F 29.97 in Calm   3 mph 94% 0.00 in 0 W/m2
05:39 70.6 °F 68.8 °F 29.97 in Calm     94% 0.00 in 0 W/m2
05:44 70.6 °F 68.8 °F 29.97 in Calm   1 mph 94% 0.00 in 0 W/m2
05:49 70.6 °F 68.8 °F 29.97 in Calm   1 mph 94.2% 0.00 in 0 W/m2
05:54 70.6 °F 68.8 °F 29.97 in SE 0.1 mph 1 mph 94% 0.00 in 0 W/m2
05:59 70.6 °F 68.9 °F 29.97 in Calm   1 mph 94.4% 0.00 in 0 W/m2
06:04 70.6 °F 68.9 °F 29.97 in Calm   1 mph 94.3% 0.00 in 0 W/m2
06:09 70.7 °F 68.9 °F 29.97 in Calm     94% 0.00 in 0 W/m2
06:14 70.7 °F 68.9 °F 29.97 in Calm     94% 0.00 in 0 W/m2
06:19 70.7 °F 68.9 °F 29.97 in Calm     94% 0.00 in 0 W/m2
06:24 70.7 °F 68.9 °F 29.97 in Calm     94% 0.00 in 0 W/m2
06:29 70.6 °F 68.8 °F 29.97 in Calm     94% 0.00 in 0 W/m2
06:34 70.6 °F 68.8 °F 29.97 in Calm     94% 0.00 in 0 W/m2
06:39 70.6 °F 68.8 °F 29.97 in Calm     94% 0.00 in 0 W/m2
06:44 70.6 °F 68.8 °F 29.97 in Calm     94% 0.00 in 0 W/m2
06:49 70.5 °F 68.7 °F 29.97 in Calm     94% 0.00 in 5 W/m2
06:54 70.5 °F 68.7 °F 29.97 in Calm   1 mph 94% 0.00 in 9 W/m2
06:59 70.6 °F 68.8 °F 29.97 in Calm   1 mph 94% 0.00 in 26 W/m2
07:04 70.6 °F 68.8 °F 29.97 in Calm   1 mph 94.1% 0.00 in 25 W/m2
07:09 70.7 °F 69.2 °F 29.97 in Calm     95% 0.00 in 37 W/m2
07:14 70.8 °F 69.3 °F 29.97 in ESE 0.1 mph 3 mph 95% 0.00 in 54 W/m2
07:19 70.9 °F 69.4 °F 29.97 in Calm   3 mph 95% 0.00 in 53 W/m2
07:24 71.1 °F 69.6 °F 29.97 in Calm   3 mph 95% 0.00 in 53 W/m2
07:29 71.2 °F 69.4 °F 29.97 in SE 0.6 mph 7 mph 94% 0.00 in 42 W/m2
07:34 71.4 °F 69.5 °F 29.97 in Calm   7 mph 94% 0.00 in 51 W/m2
07:39 71.5 °F 69.7 °F 29.98 in ESE 0.1 mph 2 mph 94% 0.00 in 69 W/m2
07:44 71.7 °F 69.9 °F 29.97 in ESE 0.1 mph 2 mph 94% 0.00 in 67 W/m2
07:49 71.9 °F 70 °F 29.97 in Calm   2 mph 94% 0.00 in 67 W/m2
07:54 72.1 °F 70.2 °F 29.97 in Calm   2 mph 94% 0.00 in 74 W/m2
07:59 72.3 °F 70.2 °F 29.97 in Calm   2 mph 93.1% 0.00 in 63 W/m2
08:00 72.4 °F 70.3 °F 29.97 in SE 2 mph 2 mph 93% 0.00 in 58 W/m2
08:09 72.6 °F 70.4 °F 29.97 in SSE 0.1 mph 2 mph 92.7% 0.00 in 91 W/m2
08:14 72.7 °F 70.3 °F 29.97 in Calm   2 mph 92% 0.00 in 91 W/m2
08:19 72.8 °F 70.4 °F 29.97 in SE 0.3 mph 4 mph 92% 0.00 in 83 W/m2
08:24 72.9 °F 70.5 °F 29.97 in SSE 0.1 mph 4 mph 92% 0.00 in 125 W/m2
08:29 73.1 °F 70.6 °F 29.98 in ESE 0.1 mph 4 mph 92% 0.00 in 139 W/m2
08:34 73.3 °F 70.8 °F 29.98 in ESE 0.6 mph 4 mph 92% 0.00 in 149 W/m2
08:39 73.5 °F 70.7 °F 29.98 in ESE 0.3 mph 4 mph 91% 0.00 in 137 W/m2
08:44 73.7 °F 71 °F 29.98 in SE 0.9 mph 6 mph 91% 0.00 in 193 W/m2
08:49 74.1 °F 71.3 °F 29.98 in Calm   6 mph 91% 0.00 in 211 W/m2
08:54 74.5 °F 71.6 °F 29.98 in ESE 0.2 mph 6 mph 90.6% 0.00 in 207 W/m2
08:59 74.8 °F 71.5 °F 29.98 in Calm   6 mph 89.2% 0.00 in 360 W/m2
09:04 75.3 °F 71.8 °F 29.98 in SW 0.5 mph 6 mph 89% 0.00 in 469 W/m2
09:09 75.8 °F 72.1 °F 29.98 in SE 0.3 mph 7 mph 88.2% 0.00 in 510 W/m2
09:14 76.4 °F 72.2 °F 29.98 in ESE 1.3 mph 10 mph 86.7% 0.00 in 432 W/m2
09:19 76.9 °F 72 °F 29.98 in SSE 0.8 mph 10 mph 85% 0.00 in 448 W/m2
09:24 77.3 °F 72.4 °F 29.98 in ESE 0.6 mph 10 mph 84.8% 0.00 in 594 W/m2
09:30 78 °F 72.4 °F 29.98 in ESE 1 mph 10 mph 83% 0.00 in 422 W/m2
10:00 79.2 °F 73.2 °F 29.98 in Calm   9 mph 82% 0.00 in 351 W/m2
10:30 80.4 °F 72.5 °F 29.98 in ESE 1 mph 12 mph 77% 0.00 in 513 W/m2
11:00 79.1 °F 72 °F 29.98 in SE 2 mph 16 mph 79% 0.00 in 265 W/m2
11:30 79.1 °F 71.3 °F 29.97 in ESE 1 mph 13 mph 77% 0.00 in 227 W/m2
12:04 79.2 °F 71 °F 29.97 in ESE 0.9 mph 4 mph 76% 0.00 in 102 W/m2
12:09 79.1 °F 71.2 °F 29.97 in ESE 1.3 mph 7 mph 76.8% 0.00 in 329 W/m2
12:14 79 °F 71.4 °F 29.97 in SE 0.7 mph 7 mph 77.6% 0.00 in 250 W/m2
12:19 79 °F 71.3 °F 29.97 in SSW 0.4 mph 9 mph 77.3% 0.00 in 302 W/m2
12:24 79.2 °F 71.8 °F 29.97 in SSE 0.2 mph 9 mph 78% 0.00 in 265 W/m2
12:29 79.6 °F 72.2 °F 29.97 in East 0.3 mph 9 mph 78% 0.00 in 264 W/m2
12:34 80 °F 72.1 °F 29.96 in SSE 0.4 mph 9 mph 77% 0.00 in 264 W/m2
12:39 80.2 °F 71.9 °F 29.96 in ESE 1.1 mph 13 mph 75.9% 0.00 in 281 W/m2
12:44 80 °F 71.5 °F 29.96 in SSE 1.9 mph 13 mph 75.2% 0.00 in 290 W/m2
12:49 79.9 °F 71.4 °F 29.96 in SE 2.3 mph 13 mph 75.3% 0.00 in 271 W/m2
12:54 80 °F 71.6 °F 29.96 in SE 2.2 mph 13 mph 75.4% 0.00 in 243 W/m2
12:59 80.2 °F 71.8 °F 29.96 in SSE 1.8 mph 13 mph 75.6% 0.00 in 223 W/m2
13:04 80.4 °F 71.8 °F 29.96 in SE 2.7 mph 13 mph 75.2% 0.00 in 214 W/m2
13:09 80.2 °F 71.5 °F 29.96 in SE 2.5 mph 12 mph 75% 0.00 in 250 W/m2
13:14 80 °F 71.7 °F 29.95 in SE 3 mph 13 mph 76% 0.00 in 318 W/m2
13:19 79.8 °F 71.5 °F 29.96 in SE 2.1 mph 13 mph 75.9% 0.00 in 223 W/m2
13:24 79.5 °F 71.3 °F 29.95 in SE 2.3 mph 13 mph 76% 0.00 in 151 W/m2
13:29 79.3 °F 71.4 °F 29.95 in ESE 1.1 mph 13 mph 76.9% 0.00 in 234 W/m2
13:34 79.1 °F 71.1 °F 29.95 in SE 2 mph 13 mph 76.5% 0.00 in 234 W/m2
13:39 79.2 °F 71.4 °F 29.95 in SE 0.5 mph 11 mph 77% 0.00 in 292 W/m2
13:44 79.3 °F 71.5 °F 29.95 in ESE 0.3 mph 11 mph 77% 0.00 in 218 W/m2
13:49 79.4 °F 71.7 °F 29.95 in SSE 0.6 mph 11 mph 77.2% 0.00 in 178 W/m2
13:54 79.5 °F 71.4 °F 29.96 in SE 1.8 mph 11 mph 76.2% 0.00 in 251 W/m2
13:59 79.5 °F 71.2 °F 29.96 in SE 2.2 mph 11 mph 75.9% 0.00 in 179 W/m2
14:04 79.3 °F 70.8 °F 29.96 in ESE 1.7 mph 11 mph 75.3% 0.00 in 264 W/m2
14:09 79.3 °F 70.8 °F 29.96 in SSE 2.7 mph 10 mph 75.1% 0.00 in 306 W/m2
14:14 79.6 °F 71 °F 29.96 in SE 1.8 mph 10 mph 75% 0.00 in 265 W/m2
14:19 79.9 °F 71.5 °F 29.96 in ESE 0.6 mph 10 mph 75.5% 0.00 in 287 W/m2
14:24 80 °F 71.4 °F 29.95 in SE 2.6 mph 12 mph 75% 0.00 in 165 W/m2
14:29 79.9 °F 71.2 °F 29.96 in SE 1 mph 12 mph 75% 0.00 in 234 W/m2
14:34 79.7 °F 71.4 °F 29.96 in SE 1.3 mph 12 mph 75.9% 0.00 in 239 W/m2
14:39 79.7 °F 71.3 °F 29.95 in SE 2.3 mph 11 mph 75.6% 0.00 in 125 W/m2
14:44 79.5 °F 71.3 °F 29.95 in SE 0.8 mph 11 mph 76% 0.00 in 438 W/m2
14:49 79.6 °F 71.5 °F 29.95 in SE 1.5 mph 11 mph 76.4% 0.00 in 392 W/m2
14:54 79.9 °F 71.8 °F 29.95 in ESE 0.7 mph 11 mph 76.4% 0.00 in 214 W/m2
14:59 80 °F 71.8 °F 29.95 in ESE 0.8 mph 11 mph 76% 0.00 in 223 W/m2
15:04 80 °F 71.7 °F 29.94 in ESE 1.4 mph 11 mph 76% 0.00 in 139 W/m2
15:09 79.7 °F 71.6 °F 29.94 in SSE 0.4 mph 9 mph 76.2% 0.00 in 179 W/m2
15:14 79.5 °F 71.5 °F 29.94 in SSE 0.7 mph 9 mph 76.6% 0.00 in 193 W/m2
15:19 79.5 °F 71.6 °F 29.94 in SE 0.8 mph 9 mph 76.9% 0.00 in 264 W/m2
15:24 79.6 °F 71.8 °F 29.93 in ESE 0.5 mph 9 mph 77% 0.00 in 251 W/m2
15:29 79.6 °F 71.4 °F 29.93 in ESE 1.2 mph 10 mph 76.2% 0.00 in 91 W/m2
15:34 79.3 °F 71.1 °F 29.94 in ESE 3.4 mph 14 mph 76.1% 0.00 in 76 W/m2
15:39 78.9 °F 71.1 °F 29.93 in SE 1 mph 14 mph 77.1% 0.00 in 62 W/m2
15:44 78.7 °F 71.2 °F 29.93 in ESE 0.7 mph 14 mph 78.1% 0.00 in 93 W/m2
15:49 78.5 °F 71.4 °F 29.93 in ESE 2 mph 14 mph 79% 0.00 in 77 W/m2
15:54 78.3 °F 71.2 °F 29.93 in SE 2.9 mph 14 mph 79% 0.00 in 76 W/m2
15:59 78.1 °F 71.1 °F 29.93 in SSE 0.8 mph 14 mph 79.3% 0.00 in 90 W/m2
16:09 77.9 °F 71.3 °F 29.93 in SE 0.7 mph 4 mph 80.1% 0.00 in 95 W/m2
16:14 77.8 °F 71.4 °F 29.93 in SE 1.7 mph 12 mph 80.7% 0.00 in 100 W/m2
16:19 77.8 °F 71.3 °F 29.93 in ESE 1.9 mph 12 mph 80.7% 0.00 in 107 W/m2
16:24 77.7 °F 71.4 °F 29.93 in SE 1 mph 12 mph 81% 0.00 in 113 W/m2
16:29 77.7 °F 71.4 °F 29.93 in SE 1.2 mph 12 mph 81% 0.00 in 125 W/m2
16:34 77.7 °F 71.4 °F 29.93 in SE 1.9 mph 12 mph 81% 0.00 in 121 W/m2
16:39 77.7 °F 71.3 °F 29.93 in SSE 1.6 mph 7 mph 80.8% 0.00 in 109 W/m2
16:44 77.6 °F 71.3 °F 29.93 in SSE 0.9 mph 7 mph 81% 0.00 in 127 W/m2
16:49 77.6 °F 71.3 °F 29.93 in SSE 1.1 mph 7 mph 81% 0.00 in 111 W/m2
16:54 77.6 °F 71.3 °F 29.93 in SE 2.8 mph 10 mph 81% 0.00 in 98 W/m2
16:59 77.6 °F 71.3 °F 29.94 in SE 2.6 mph 11 mph 81% 0.00 in 93 W/m2
17:04 77.5 °F 71.2 °F 29.94 in South 1.3 mph 13 mph 81% 0.00 in 90 W/m2
17:09 77.5 °F 71.5 °F 29.94 in Calm   13 mph 81.9% 0.00 in 62 W/m2
17:14 77.4 °F 71.3 °F 29.94 in ESE 0.7 mph 13 mph 81.6% 0.00 in 49 W/m2
17:19 77.3 °F 71.4 °F 29.94 in SE 0.2 mph 13 mph 82% 0.00 in 26 W/m2
17:24 77.2 °F 71.3 °F 29.94 in ESE 0.4 mph 13 mph 82% 0.00 in 33 W/m2
17:29 77.1 °F 71.2 °F 29.94 in SE 0.5 mph 13 mph 82% 0.00 in 26 W/m2
17:34 76.9 °F 71 °F 29.94 in ESE 1.3 mph 13 mph 82% 0.00 in 21 W/m2
17:39 76.8 °F 71.2 °F 29.94 in SE 1.7 mph 11 mph 82.8% 0.00 in 19 W/m2
17:44 76.6 °F 71.1 °F 29.94 in ESE 2 mph 12 mph 83% 0.00 in 21 W/m2
17:49 76.4 °F 70.9 °F 29.95 in SE 1.7 mph 12 mph 83.1% 0.00 in 21 W/m2
17:54 76.3 °F 71.1 °F 29.95 in SE 0.7 mph 12 mph 84% 0.00 in 19 W/m2
17:58 76.2 °F 71 °F 29.95 in SSE 0.7 mph 12 mph 84% 0.00 in 16 W/m2
18:04 76.1 °F 70.9 °F 29.95 in SE 1.1 mph 12 mph 84% 0.00 in 12 W/m2
18:09 76.1 °F 70.9 °F 29.95 in SSE 1.6 mph 7 mph 84% 0.00 in 9 W/m2
18:14 75.9 °F 70.8 °F 29.96 in SE 2.3 mph 10 mph 84% 0.00 in 7 W/m2
18:19 75.8 °F 70.7 °F 29.96 in SE 1.4 mph 11 mph 84% 0.00 in 5 W/m2
18:24 75.8 °F 70.9 °F 29.96 in SE 2.2 mph 12 mph 85% 0.00 in 5 W/m2
18:29 75.7 °F 70.9 °F 29.96 in ESE 1.1 mph 12 mph 85% 0.00 in 0 W/m2
18:34 75.6 °F 70.8 °F 29.96 in SE 0.7 mph 12 mph 85% 0.00 in 0 W/m2
18:39 75.6 °F 70.8 °F 29.96 in ESE 1 mph 8 mph 85.2% 0.00 in 0 W/m2
18:44 75.5 °F 71 °F 29.95 in SE 2.2 mph 12 mph 86% 0.00 in 0 W/m2
18:49 75.4 °F 70.9 °F 29.95 in SE 4.1 mph 12 mph 86% 0.00 in 0 W/m2
18:54 75.3 °F 70.8 °F 29.95 in ESE 0.6 mph 12 mph 86% 0.00 in 0 W/m2
18:59 75.2 °F 70.8 °F 29.95 in SSE 0.4 mph 12 mph 86.2% 0.00 in 0 W/m2
19:04 75.2 °F 71 °F 29.95 in SE 0.4 mph 12 mph 87% 0.00 in 0 W/m2
19:09 75.1 °F 71 °F 29.95 in SE 0.4 mph 5 mph 87% 0.00 in 0 W/m2
19:14 75.1 °F 71 °F 29.95 in ESE 1.2 mph 9 mph 87% 0.00 in 0 W/m2
19:19 75.1 °F 71 °F 29.95 in ESE 0.8 mph 9 mph 87% 0.00 in 0 W/m2
19:24 75.1 °F 71.1 °F 29.95 in SE 1.3 mph 9 mph 87.3% 0.00 in 0 W/m2
19:29 75 °F 71.2 °F 29.95 in SE 1 mph 9 mph 88% 0.00 in 0 W/m2
19:34 75 °F 71.2 °F 29.95 in SSE 0.7 mph 11 mph 88% 0.00 in 0 W/m2
19:39 75 °F 71.2 °F 29.95 in SE 0.7 mph 11 mph 88% 0.00 in 0 W/m2
19:44 75 °F 71.2 °F 29.95 in ESE 0.9 mph 11 mph 88% 0.00 in 0 W/m2
19:49 75 °F 71.2 °F 29.94 in SE 0.5 mph 11 mph 88% 0.00 in 0 W/m2
19:54 75 °F 71.2 °F 29.94 in ESE 0.6 mph 11 mph 88% 0.00 in 0 W/m2
19:59 74.9 °F 71.1 °F 29.94 in SSW 0.5 mph 11 mph 88% 0.00 in 0 W/m2
20:00 74.9 °F 71.1 °F 29.94 in Calm   11 mph 88% 0.00 in 0 W/m2
20:09 74.9 °F 71.1 °F 29.94 in SE 1.4 mph 6 mph 88% 0.00 in 0 W/m2
20:14 74.9 °F 71.1 °F 29.94 in South 0.8 mph 6 mph 88% 0.00 in 0 W/m2
20:19 74.9 °F 71.1 °F 29.94 in South 0.6 mph 6 mph 88% 0.00 in 0 W/m2
20:24 74.9 °F 71.2 °F 29.94 in SSE 0.2 mph 6 mph 88% 0.00 in 0 W/m2
20:29 75 °F 71.3 °F 29.94 in SSE 0.9 mph 6 mph 88.2% 0.00 in 0 W/m2
20:34 75 °F 71.4 °F 29.94 in SE 0.7 mph 9 mph 88.7% 0.00 in 0 W/m2
20:39 75.1 °F 71.6 °F 29.94 in SSE 1.3 mph 9 mph 89% 0.00 in 0 W/m2
20:44 75.1 °F 71.6 °F 29.94 in SE 1.4 mph 10 mph 89% 0.00 in 0 W/m2
20:49 75.1 °F 71.6 °F 29.94 in SE 1.5 mph 10 mph 88.9% 0.00 in 0 W/m2
20:54 75.2 °F 71.5 °F 29.95 in SSE 1.5 mph 10 mph 88.3% 0.00 in 0 W/m2
20:59 75.2 °F 71.4 °F 29.95 in ESE 0.7 mph 10 mph 88% 0.00 in 0 W/m2
21:04 75.2 °F 71.4 °F 29.95 in SE 1.4 mph 10 mph 88% 0.00 in 0 W/m2
21:09 75.2 °F 71.4 °F 29.95 in SE 0.5 mph 10 mph 88% 0.00 in 0 W/m2
21:14 75.3 °F 71.5 °F 29.95 in SE 1.6 mph 10 mph 88% 0.00 in 0 W/m2
21:19 75.3 °F 71.5 °F 29.95 in ESE 0.8 mph 10 mph 88% 0.00 in 0 W/m2
21:24 75.3 °F 71.5 °F 29.95 in ESE 0.8 mph 10 mph 88% 0.00 in 0 W/m2
21:29 75.3 °F 71.5 °F 29.95 in SE 1.5 mph 10 mph 88% 0.00 in 0 W/m2
21:34 75.3 °F 71.5 °F 29.95 in SE 1.1 mph 10 mph 88% 0.00 in 0 W/m2
21:39 75.3 °F 71.5 °F 29.95 in Calm   6 mph 88% 0.00 in 0 W/m2
21:44 75.3 °F 71.5 °F 29.95 in Calm   6 mph 88% 0.00 in 0 W/m2
21:49 75.3 °F 71.6 °F 29.95 in ESE 0.3 mph 6 mph 88.2% 0.00 in 0 W/m2
21:54 75.3 °F 71.6 °F 29.95 in ESE 0.5 mph 6 mph 88.5% 0.00 in 0 W/m2
21:59 75.2 °F 71.8 °F 29.95 in ESE 0.6 mph 6 mph 89% 0.00 in 0 W/m2
22:04 75.2 °F 71.8 °F 29.95 in ESE 0.6 mph 7 mph 89% 0.00 in 0 W/m2
22:09 75.2 °F 71.7 °F 29.95 in SE 1.8 mph 11 mph 89% 0.00 in 0 W/m2
22:14 75.2 °F 71.7 °F 29.94 in ESE 0.2 mph 11 mph 89% 0.00 in 0 W/m2
22:19 75.2 °F 71.7 °F 29.94 in SSE 0.2 mph 11 mph 89% 0.00 in 0 W/m2
22:24 75.1 °F 71.6 °F 29.94 in SSE 0.7 mph 11 mph 89% 0.00 in 0 W/m2
22:29 75.1 °F 71.6 °F 29.94 in ESE 0.6 mph 11 mph 89% 0.00 in 0 W/m2
22:34 75.1 °F 71.6 °F 29.94 in SSE 0.9 mph 11 mph 89% 0.00 in 0 W/m2
22:39 75.1 °F 71.6 °F 29.94 in ESE 1.4 mph 13 mph 89% 0.00 in 0 W/m2
22:44 75.1 °F 71.6 °F 29.94 in SE 1.1 mph 13 mph 89% 0.00 in 0 W/m2
22:49 75.1 °F 71.6 °F 29.94 in SE 1.2 mph 13 mph 89% 0.00 in 0 W/m2
22:54 75.1 °F 71.7 °F 29.94 in SE 1 mph 13 mph 89% 0.00 in 0 W/m2
22:59 75.2 °F 71.7 °F 29.94 in SE 1 mph 13 mph 89% 0.00 in 0 W/m2
23:04 75.1 °F 71.7 °F 29.94 in SE 0.9 mph 13 mph 89% 0.00 in 0 W/m2
23:09 75.1 °F 71.6 °F 29.94 in ESE 1.2 mph 13 mph 89% 0.00 in 0 W/m2
23:14 75.1 °F 71.6 °F 29.94 in ESE 1.2 mph 13 mph 89% 0.00 in 0 W/m2
23:19 75.1 °F 71.6 °F 29.94 in Calm   13 mph 89% 0.00 in 0 W/m2
23:24 75.1 °F 71.6 °F 29.93 in SE 1.3 mph 13 mph 89% 0.00 in 0 W/m2
23:29 75.1 °F 71.6 °F 29.93 in SE 1 mph 13 mph 89% 0.00 in 0 W/m2
23:34 75.1 °F 71.6 °F 29.93 in SSE 0.6 mph 13 mph 89% 0.00 in 0 W/m2
23:39 75.1 °F 71.6 °F 29.93 in SE 1.6 mph 5 mph 89% 0.00 in 0 W/m2
23:44 75.1 °F 71.6 °F 29.93 in SE 1.4 mph 7 mph 89% 0.00 in 0 W/m2
23:49 75.1 °F 71.7 °F 29.93 in SE 0.6 mph 7 mph 89% 0.00 in 0 W/m2
23:54 75.1 °F 71.7 °F 29.93 in SE 0.7 mph 7 mph 89% 0.00 in 0 W/m2
23:59 75.1 °F 71.7 °F 29.93 in SE 1.6 mph 7 mph 89% 0.00 in 0 W/m2
Hartford County Weather
Compliments of Weather Underground - 2 mb